• Join FlightAware (Why Join?)
  • Login
  • US Flag 
05:36PM EDT


 

Airport Tracker/Info


-or-


 

Live Flight TrackerFlight Track Log ✈ SKZ3801 ✈ 23-May-2013 ✈ TJBQ / BQN - MDSD / SDQ

Flight Track Log - Related Links

Times and Time Zones

All times are in EDT time to prevent confusion due to time zone crossing. See the SKZ3801 flight status page for this flight to view local times or setup timezone preferences in your user account.

Time Position Orientation Groundspeed Altitude Reporting Facility
EDT Latitude Longitude Course Direction KTS MPH feet Rate Location/Type
12:31PM 18.5000 -67.1000 298° West 140 161 800  Level San Juan Center
12:32PM 18.5167 -67.1333 298° West 170 196 1,300 420 Climbing San Juan Center
12:33PM 18.5000 -67.2000 255° West 190 219 1,700 480 Climbing San Juan Center
12:34PM 18.5000 -67.2500 270° West 180 207 2,300 540 Climbing San Juan Center
12:35PM 18.4833 -67.3000 251° West 180 207 2,800 540 Climbing San Juan Center
12:36PM 18.4833 -67.3500 270° West 170 196 3,400 540 Climbing San Juan Center
12:37PM 18.4667 -67.4000 251° West 170 196 3,900 540 Climbing San Juan Center
12:38PM 18.4500 -67.4500 251° West 170 196 4,500 540 Climbing San Juan Center
12:39PM 18.4500 -67.5000 270° West 170 196 5,000 480 Climbing San Juan Center
12:40PM 18.4500 -67.5500 270° West 170 196 5,500 420 Climbing San Juan Center
12:41PM 18.4500 -67.6000 270° West 180 207 5,900 420 Climbing San Juan Center
12:42PM 18.4500 -67.6500 270° West 180 207 6,400 420 Climbing San Juan Center
12:43PM 18.4333 -67.7000 251° West 180 207 6,800 420 Climbing San Juan Center
12:44PM 18.4333 -67.7500 270° West 180 207 7,300 540 Climbing San Juan Center
12:45PM 18.4333 -67.8167 270° West 180 207 8,000 300 Climbing San Juan Center
12:46PM 18.4333 -67.8667 270° West 200 230 8,000  Level San Juan Center
12:47PM 18.4333 -67.9167 270° West 190 219 8,000  Level San Juan Center
12:48PM 18.4333 -67.9833 270° West 190 219 8,000  Level San Juan Center
12:50PM 18.4650 -68.0657 268° West  Level FlightAware Approximate
12:57PM 18.4551 -68.4345 268° West  Level FlightAware Approximate
12:58PM 18.4536 -68.4872 268° West  Level FlightAware Approximate
12:59PM 18.4521 -68.5399 268° West  Level FlightAware Approximate
01:00PM 18.4506 -68.5926 268° West  Level FlightAware Approximate
01:01PM 18.4491 -68.6453 268° West  Level FlightAware Approximate
01:02PM 18.4476 -68.6979 268° West  Level FlightAware Approximate
01:03PM 18.4460 -68.7506 268° West  Level FlightAware Approximate
01:04PM 18.4445 -68.8033 268° West  Level FlightAware Approximate
01:05PM 18.4429 -68.8560 268° West  Level FlightAware Approximate
01:06PM 18.4413 -68.9087 268° West  Level FlightAware Approximate
01:07PM 18.4397 -68.9613 268° West  Level FlightAware Approximate
01:08PM 18.4381 -69.0140 268° West  Level FlightAware Approximate
01:09PM 18.4365 -69.0667 268° West  Level FlightAware Approximate
01:10PM 18.4348 -69.1194 268° West  Level FlightAware Approximate
01:11PM 18.4333 -69.1720 270° West  Level FlightAware Approximate
01:12PM 18.4333 -69.2247 270° West  Level FlightAware Approximate
01:13PM 18.4333 -69.2774 270° West  Level FlightAware Approximate
01:14PM 18.4333 -69.3301 270° West  Level FlightAware Approximate
01:15PM 18.4333 -69.3828 270° West  Level FlightAware Approximate
01:16PM 18.4333 -69.4356 270° West  Level FlightAware Approximate
01:17PM 18.4333 -69.4883 270° West  Level FlightAware Approximate
01:18PM 18.4333 -69.5410 270° West  Level FlightAware Approximate
01:19PM 18.4280 -69.5931 258° West  Level FlightAware Approximate
01:20PM 18.4177 -69.6447 258° West  Level FlightAware Approximate
01:21PM 18.4167 -69.6500 258° West  Level FlightAware Approximate
01:22PM 18.4297 -69.6689 258° West  Level Estimated
01:23PM 18.4297 -69.6689 258° West  Level Estimated
01:24PM 18.4297 -69.6689 258° West  Level Estimated
01:25PM 18.4297 -69.6689 258° West  Level Estimated
01:26PM 18.4297 -69.6689 258° West  Level Estimated
01:27PM 18.4297 -69.6689 258° West  Level Estimated
01:28PM 18.4297 -69.6689 258° West  Level Estimated
01:29PM 18.4297 -69.6689 258° West  Level Estimated
01:30PM 18.4297 -69.6689 258° West  Level Estimated
01:31PM 18.4297 -69.6689 258° West  Level Estimated